Time;durP1;ratioP1;P1;durP2;ratioP2;P2;SDS_P1;SDS_P2;PMS_P1;PMS_P2;Temp;Humidity;BMP_temperature;BMP_pressure;BME280_temperature;BME280_humidity;BME280_pressure;Samples;Min_cycle;Max_cycle;Signal;HPM_P1;HPM_P2
2022/08/15 00:01:01;;;;;;;10.18;5.43;;;22.70;92.30;;;;;;5012982;28;20112;-72
2022/08/15 00:03:31;;;;;;;8.90;6.07;;;22.70;92.20;;;;;;5012330;28;20034;-72
2022/08/15 00:06:00;;;;;;;7.53;5.10;;;22.70;92.40;;;;;;5012746;28;20037;-72
2022/08/15 00:08:28;;;;;;;9.00;5.85;;;22.70;92.40;;;;;;5012362;28;20774;-72
2022/08/15 00:11:01;;;;;;;7.68;5.03;;;22.70;92.30;;;;;;5012444;28;20034;-72
2022/08/15 00:13:28;;;;;;;8.35;5.32;;;22.70;92.50;;;;;;5012583;28;20033;-72
2022/08/15 00:15:55;;;;;;;10.35;5.70;;;22.60;92.70;;;;;;5012858;28;20057;-72
2022/08/15 00:18:24;;;;;;;7.13;4.95;;;22.60;92.50;;;;;;5012148;28;20137;-72
2022/08/15 00:20:52;;;;;;;6.82;4.88;;;22.60;92.70;;;;;;5012810;28;20496;-72
2022/08/15 00:23:26;;;;;;;9.10;5.53;;;22.70;92.60;;;;;;5012342;28;20111;-72
2022/08/15 00:25:55;;;;;;;6.43;4.70;;;22.70;92.90;;;;;;5012812;28;20022;-72
2022/08/15 00:28:21;;;;;;;10.00;5.50;;;22.60;92.70;;;;;;5012236;28;20037;-71
2022/08/15 00:30:47;;;;;;;9.45;5.53;;;22.50;93.10;;;;;;5012578;28;20499;-71
2022/08/15 00:33:14;;;;;;;8.48;5.32;;;22.50;92.90;;;;;;5012688;28;20033;-72
2022/08/15 00:35:45;;;;;;;8.50;5.50;;;22.50;92.90;;;;;;5009361;28;20077;-71
2022/08/15 00:38:15;;;;;;;7.40;5.18;;;22.40;93.00;;;;;;5012428;28;20445;-71
2022/08/15 00:43:34;;;;;;;7.00;4.88;;;22.40;93.10;;;;;;5011824;28;20037;-71
2022/08/15 00:46:02;;;;;;;7.10;5.13;;;22.40;93.10;;;;;;5012429;28;20040;-71
2022/08/15 00:48:43;;;;;;;7.03;5.53;;;22.40;93.00;;;;;;5012081;28;20037;-72
2022/08/15 00:51:17;;;;;;;7.15;5.07;;;22.40;93.10;;;;;;5012444;28;20157;-71
2022/08/15 00:53:50;;;;;;;8.77;5.53;;;22.30;93.30;;;;;;5012105;28;20117;-72
2022/08/15 00:56:17;;;;;;;6.90;5.13;;;22.30;93.50;;;;;;5012652;28;20164;-72
2022/08/15 00:58:44;;;;;;;9.35;5.70;;;22.30;93.50;;;;;;5011810;28;20030;-71
2022/08/15 01:01:12;;;;;;;7.43;5.28;;;22.20;93.40;;;;;;5012602;28;20034;-73
2022/08/15 01:03:44;;;;;;;7.13;5.07;;;22.30;93.70;;;;;;5015631;28;20044;-70
2022/08/15 01:06:10;;;;;;;8.95;5.72;;;22.20;93.60;;;;;;5015898;28;20026;-71
2022/08/15 01:08:39;;;;;;;8.05;5.30;;;22.20;94.00;;;;;;5013870;28;20033;-71
2022/08/15 01:11:19;;;;;;;8.68;5.22;;;22.20;94.10;;;;;;4996301;28;20022;-73
2022/08/15 01:13:47;;;;;;;8.52;5.38;;;22.20;94.30;;;;;;4999492;28;20042;-72
2022/08/15 01:16:14;;;;;;;8.25;5.75;;;22.10;94.70;;;;;;4999392;28;20053;-72
2022/08/15 01:18:40;;;;;;;8.52;5.50;;;22.20;94.50;;;;;;4998145;28;20062;-72
2022/08/15 01:21:22;;;;;;;9.52;6.00;;;22.20;94.40;;;;;;4979671;28;20084;-72
2022/08/15 01:24:15;;;;;;;13.10;5.43;;;22.10;94.70;;;;;;5007346;28;20026;-73
2022/08/15 01:26:41;;;;;;;10.77;5.55;;;22.00;94.70;;;;;;5014218;28;20096;-72
2022/08/15 01:29:07;;;;;;;9.75;5.68;;;22.00;94.90;;;;;;5014798;28;20034;-72
2022/08/15 01:31:34;;;;;;;7.38;5.32;;;21.90;95.10;;;;;;5015854;28;20062;-72
2022/08/15 01:34:00;;;;;;;8.45;5.60;;;21.90;95.30;;;;;;5015840;28;20071;-72
2022/08/15 01:36:28;;;;;;;8.38;5.82;;;21.90;95.30;;;;;;5014944;28;20034;-72
2022/08/15 01:39:18;;;;;;;8.23;5.80;;;21.80;95.50;;;;;;5015509;28;20382;-72
2022/08/15 01:41:57;;;;;;;8.55;6.10;;;21.80;95.60;;;;;;5015431;28;20109;-72
2022/08/15 01:44:23;;;;;;;6.80;5.35;;;21.80;95.70;;;;;;5015220;28;20137;-72
2022/08/15 01:46:58;;;;;;;11.40;6.45;;;21.80;95.90;;;;;;5015544;28;20510;-72
2022/08/15 01:49:32;;;;;;;8.65;4.82;;;21.80;95.90;;;;;;5015060;28;20026;-72
2022/08/15 01:52:00;;;;;;;8.82;5.68;;;21.70;96.40;;;;;;5015002;28;20030;-72
2022/08/15 01:54:32;;;;;;;7.55;5.25;;;21.70;96.40;;;;;;5014406;28;20056;-72
2022/08/15 01:56:59;;;;;;;8.73;5.13;;;21.70;96.30;;;;;;5015222;28;20057;-72
2022/08/15 01:59:25;;;;;;;8.90;5.68;;;21.70;96.50;;;;;;5014371;28;20394;-72
2022/08/15 02:02:03;;;;;;;7.63;5.40;;;21.80;96.00;;;;;;5014876;28;20528;-72
2022/08/15 02:04:37;;;;;;;8.93;5.90;;;21.80;95.80;;;;;;5014743;28;20057;-72
2022/08/15 02:07:10;;;;;;;6.95;5.25;;;21.80;95.90;;;;;;5015146;28;20053;-72
2022/08/15 02:09:36;;;;;;;7.47;5.32;;;21.80;95.80;;;;;;5014250;28;20034;-72
2022/08/15 02:12:08;;;;;;;7.70;4.95;;;21.80;95.80;;;;;;5014867;28;20462;-72
2022/08/15 02:14:35;;;;;;;8.50;6.03;;;21.90;95.60;;;;;;5014345;28;20072;-72
2022/08/15 02:17:02;;;;;;;7.97;5.35;;;21.80;95.80;;;;;;5014570;28;20109;-71
2022/08/15 02:19:28;;;;;;;7.82;5.43;;;21.80;96.10;;;;;;5013933;28;20077;-72
2022/08/15 02:21:55;;;;;;;9.93;5.80;;;21.90;96.00;;;;;;5014792;28;20061;-72
2022/08/15 02:24:23;;;;;;;8.65;5.28;;;21.90;96.30;;;;;;5013596;28;20026;-72
2022/08/15 02:26:52;;;;;;;11.60;5.75;;;21.90;96.00;;;;;;5013900;28;20080;-72
2022/08/15 02:29:22;;;;;;;9.93;5.05;;;21.90;95.90;;;;;;5009733;28;20022;-72
2022/08/15 02:31:51;;;;;;;9.00;5.45;;;21.90;95.90;;;;;;4994173;28;20031;-72
2022/08/15 02:34:17;;;;;;;7.05;4.65;;;21.90;96.20;;;;;;4994959;28;20030;-72
2022/08/15 02:36:43;;;;;;;8.70;4.97;;;21.90;95.90;;;;;;4994463;28;20038;-71
2022/08/15 02:39:09;;;;;;;9.35;5.30;;;21.90;95.80;;;;;;4994671;28;20125;-71
2022/08/15 02:41:42;;;;;;;10.02;5.53;;;21.90;95.70;;;;;;4994325;28;20034;-72
2022/08/15 02:44:10;;;;;;;6.80;5.07;;;21.90;95.60;;;;;;4994438;28;20417;-72
2022/08/15 02:46:37;;;;;;;8.20;5.20;;;21.90;95.60;;;;;;4994050;28;20502;-72
2022/08/15 02:49:08;;;;;;;6.97;5.07;;;21.80;95.80;;;;;;4995454;28;20121;-72
2022/08/15 02:51:34;;;;;;;7.40;5.18;;;21.80;95.90;;;;;;4994087;28;20037;-72
2022/08/15 02:54:00;;;;;;;11.90;5.57;;;21.80;95.90;;;;;;4994631;28;20030;-72
2022/08/15 02:56:27;;;;;;;9.35;5.85;;;21.70;96.00;;;;;;4994293;28;20022;-77
2022/08/15 02:58:53;;;;;;;6.65;4.95;;;21.70;96.10;;;;;;4993956;28;20046;-71
2022/08/15 03:01:22;;;;;;;8.35;6.28;;;21.70;96.10;;;;;;4994190;28;20027;-71
2022/08/15 03:03:51;;;;;;;7.30;5.28;;;21.60;96.10;;;;;;4993838;28;20423;-72
2022/08/15 03:06:20;;;;;;;8.60;5.07;;;21.60;96.10;;;;;;4976741;28;20034;-72
2022/08/15 03:08:45;;;;;;;6.97;5.05;;;21.60;96.30;;;;;;4993599;28;20038;-71
2022/08/15 03:11:13;;;;;;;7.18;4.90;;;21.50;96.60;;;;;;4993835;28;20037;-72
2022/08/15 03:13:40;;;;;;;8.02;5.30;;;21.50;96.50;;;;;;4993555;28;20072;-71
2022/08/15 03:16:07;;;;;;;7.13;5.13;;;21.60;96.70;;;;;;4994055;28;20026;-72
2022/08/15 03:18:35;;;;;;;6.93;4.63;;;21.50;96.60;;;;;;4995718;28;20068;-71
2022/08/15 03:21:04;;;;;;;7.40;4.82;;;21.50;96.60;;;;;;4993306;28;20031;-73
2022/08/15 03:23:32;;;;;;;6.60;4.45;;;21.50;96.50;;;;;;4992751;28;20036;-71
2022/08/15 03:26:00;;;;;;;7.72;4.63;;;21.50;96.70;;;;;;4992670;28;20541;-72
2022/08/15 03:28:29;;;;;;;7.75;5.13;;;21.50;96.50;;;;;;4992991;28;20038;-70
2022/08/15 03:31:00;;;;;;;8.77;4.78;;;21.50;96.60;;;;;;4993764;28;20378;-71
2022/08/15 03:33:27;;;;;;;8.60;5.35;;;21.50;96.60;;;;;;4976176;28;20118;-72
2022/08/15 03:35:53;;;;;;;7.07;4.95;;;21.50;96.60;;;;;;4993682;28;20031;-72
2022/08/15 03:38:19;;;;;;;8.65;5.15;;;21.50;96.70;;;;;;4993552;28;20038;-72
2022/08/15 03:40:48;;;;;;;8.45;5.22;;;21.50;96.60;;;;;;4993029;28;20080;-72
2022/08/15 03:43:21;;;;;;;7.35;5.07;;;21.50;96.70;;;;;;4993549;28;20027;-73
2022/08/15 03:45:50;;;;;;;8.77;5.90;;;21.50;96.60;;;;;;4992839;28;20401;-73
2022/08/15 03:48:18;;;;;;;9.15;5.20;;;21.50;96.70;;;;;;4993577;28;20042;-72
2022/08/15 03:50:44;;;;;;;8.05;5.15;;;21.50;96.80;;;;;;4992993;28;20066;-73
2022/08/15 03:53:10;;;;;;;10.50;5.90;;;21.50;97.00;;;;;;4993280;28;20035;-73
2022/08/15 03:55:38;;;;;;;9.43;5.85;;;21.40;96.90;;;;;;4992772;28;20026;-73
2022/08/15 03:58:05;;;;;;;11.23;5.88;;;21.40;97.00;;;;;;4993209;28;20374;-72
2022/08/15 04:00:38;;;;;;;8.05;5.22;;;21.40;97.10;;;;;;4992622;28;20030;-75
2022/08/15 04:03:14;;;;;;;8.63;5.68;;;21.30;97.30;;;;;;4993283;28;20044;-72
2022/08/15 04:05:41;;;;;;;7.18;5.10;;;21.30;97.30;;;;;;4992666;28;20027;-72
2022/08/15 04:08:10;;;;;;;8.93;5.85;;;21.30;97.30;;;;;;4993121;28;20037;-72
2022/08/15 04:10:37;;;;;;;7.20;5.57;;;21.30;97.50;;;;;;4992537;28;20030;-72
2022/08/15 04:13:04;;;;;;;9.50;6.25;;;21.30;97.80;;;;;;4992987;28;20040;-72
2022/08/15 04:15:30;;;;;;;6.97;5.25;;;21.30;97.90;;;;;;4992954;28;20058;-77
2022/08/15 04:17:57;;;;;;;9.07;6.05;;;21.20;98.00;;;;;;4992584;28;20463;-72
2022/08/15 04:20:24;;;;;;;7.78;5.32;;;21.30;97.70;;;;;;4992544;28;20065;-72
2022/08/15 04:22:50;;;;;;;6.97;4.85;;;21.30;97.40;;;;;;4992461;28;20089;-72
2022/08/15 04:25:22;;;;;;;8.63;5.18;;;21.30;97.10;;;;;;4992682;28;20030;-72
2022/08/15 04:27:50;;;;;;;6.38;4.95;;;21.40;97.10;;;;;;4992392;28;20149;-72
2022/08/15 04:30:16;;;;;;;7.78;5.05;;;21.40;96.90;;;;;;4992965;28;20027;-71
2022/08/15 04:32:43;;;;;;;7.15;5.03;;;21.50;96.70;;;;;;4992281;28;20030;-72
2022/08/15 04:35:11;;;;;;;7.78;5.00;;;21.50;96.40;;;;;;4995201;28;20022;-72
2022/08/15 04:37:39;;;;;;;7.45;5.10;;;21.50;96.50;;;;;;4994475;28;20455;-71
2022/08/15 04:40:07;;;;;;;7.28;5.35;;;21.60;96.30;;;;;;4996644;28;20042;-70
2022/08/15 04:42:33;;;;;;;9.50;5.63;;;21.70;96.10;;;;;;4996614;28;20038;-72
2022/08/15 04:44:58;;;;;;;8.85;5.05;;;21.70;95.90;;;;;;4996940;28;20026;-71
2022/08/15 04:47:24;;;;;;;7.43;5.28;;;21.80;95.60;;;;;;4996969;28;20037;-71
2022/08/15 04:49:50;;;;;;;10.30;5.43;;;21.90;95.50;;;;;;4996564;28;20543;-71
2022/08/15 04:52:19;;;;;;;8.60;5.03;;;22.00;95.20;;;;;;4996735;28;20399;-71
2022/08/15 04:54:45;;;;;;;6.57;5.05;;;22.10;94.70;;;;;;4996306;28;20379;-71
2022/08/15 04:57:12;;;;;;;6.90;5.18;;;22.20;94.40;;;;;;4996771;28;20418;-71
2022/08/15 04:59:39;;;;;;;6.88;5.03;;;22.30;93.80;;;;;;4996151;28;20027;-71
2022/08/15 05:02:11;;;;;;;7.45;5.20;;;22.30;93.40;;;;;;4996540;28;20038;-72
2022/08/15 05:04:37;;;;;;;8.48;5.47;;;22.30;93.40;;;;;;4996236;28;20073;-72
2022/08/15 05:07:03;;;;;;;8.52;5.43;;;22.30;93.60;;;;;;4996489;28;20058;-72
2022/08/15 05:09:29;;;;;;;6.65;4.85;;;22.30;93.60;;;;;;4996425;28;20031;-72
2022/08/15 05:11:55;;;;;;;8.27;5.60;;;22.30;93.50;;;;;;4995863;28;20041;-72
2022/08/15 05:14:20;;;;;;;7.70;5.78;;;22.20;93.50;;;;;;4996225;28;20037;-72
2022/08/15 05:16:46;;;;;;;8.27;5.65;;;22.30;93.60;;;;;;4995646;28;20026;-72
2022/08/15 05:19:12;;;;;;;8.23;5.07;;;22.20;93.70;;;;;;4995740;28;20046;-71
2022/08/15 05:21:38;;;;;;;7.97;5.60;;;22.30;94.00;;;;;;4997911;28;20057;-71
2022/08/15 05:24:05;;;;;;;8.10;5.72;;;22.40;93.60;;;;;;5014380;28;20025;-72
2022/08/15 05:26:32;;;;;;;8.55;5.20;;;22.40;93.50;;;;;;5013895;28;20501;-72
2022/08/15 05:28:58;;;;;;;8.80;4.82;;;22.40;93.40;;;;;;4996397;28;20377;-72
2022/08/15 05:31:25;;;;;;;8.18;4.78;;;22.50;93.30;;;;;;5014307;28;20120;-72
2022/08/15 05:33:51;;;;;;;9.25;5.72;;;22.60;93.20;;;;;;5013683;28;20187;-72
2022/08/15 05:36:18;;;;;;;9.98;6.00;;;22.70;93.10;;;;;;5014353;28;20464;-72
2022/08/15 05:38:53;;;;;;;8.65;5.45;;;22.80;92.70;;;;;;5013507;28;20038;-72
2022/08/15 05:41:36;;;;;;;7.75;5.72;;;23.00;92.50;;;;;;5014367;28;20026;-72
2022/08/15 05:44:22;;;;;;;7.70;4.97;;;23.00;92.50;;;;;;5014574;28;20087;-72
2022/08/15 05:46:53;;;;;;;7.63;5.07;;;23.20;92.00;;;;;;4996612;28;20064;-72
2022/08/15 05:49:25;;;;;;;6.63;5.05;;;23.50;91.70;;;;;;5014402;28;20030;-72
2022/08/15 05:51:59;;;;;;;7.18;5.03;;;23.80;90.90;;;;;;5013809;28;20506;-72
2022/08/15 05:54:36;;;;;;;8.57;5.60;;;24.20;90.20;;;;;;5014104;28;20034;-72
2022/08/15 05:57:29;;;;;;;11.88;5.15;;;24.40;87.50;;;;;;5013978;28;20092;-72
2022/08/15 05:59:59;;;;;;;7.75;5.47;;;24.50;86.90;;;;;;5003185;28;20041;-72
2022/08/15 06:02:36;;;;;;;7.17;5.00;;;24.50;84.90;;;;;;5013971;28;20035;-72
2022/08/15 06:05:04;;;;;;;7.75;5.57;;;24.50;85.60;;;;;;5013990;28;20022;-72
2022/08/15 06:07:31;;;;;;;7.43;5.10;;;24.50;84.90;;;;;;5013620;28;20091;-71
2022/08/15 06:10:13;;;;;;;9.27;5.50;;;24.40;85.90;;;;;;5013531;28;20038;-71
2022/08/15 06:12:47;;;;;;;8.07;5.35;;;24.50;86.50;;;;;;5013553;28;20026;-72
2022/08/15 06:15:33;;;;;;;13.43;6.38;;;24.70;85.10;;;;;;5014227;28;20490;-73
2022/08/15 06:18:04;;;;;;;10.23;6.03;;;24.90;83.90;;;;;;5003245;28;20116;-71
2022/08/15 06:21:13;;;;;;;8.75;5.53;;;25.00;83.10;;;;;;4965951;28;1093076;-72
2022/08/15 06:23:45;;;;;;;9.23;5.53;;;24.90;82.00;;;;;;4976747;28;20443;-72
2022/08/15 06:26:27;;;;;;;9.85;5.65;;;24.90;82.70;;;;;;5006242;28;20031;-72
2022/08/15 06:29:02;;;;;;;7.18;5.72;;;25.00;81.50;;;;;;5002546;28;20033;-72
2022/08/15 06:31:37;;;;;;;7.80;5.57;;;25.20;81.30;;;;;;5002471;28;20041;-71
2022/08/15 06:34:26;;;;;;;9.35;5.43;;;25.60;80.50;;;;;;4999919;28;20030;-72
2022/08/15 06:37:06;;;;;;;9.73;5.70;;;26.10;76.90;;;;;;5004076;28;20038;-72
2022/08/15 06:39:50;;;;;;;7.85;5.32;;;26.60;75.40;;;;;;5002955;28;20046;-73
2022/08/15 06:42:29;;;;;;;7.20;5.28;;;26.90;74.40;;;;;;5006724;28;20057;-72
2022/08/15 06:44:59;;;;;;;7.07;5.07;;;27.20;71.60;;;;;;5014065;28;20029;-71
2022/08/15 06:47:28;;;;;;;7.22;5.22;;;27.40;71.30;;;;;;5014210;28;20026;-72
2022/08/15 06:49:57;;;;;;;6.07;5.18;;;27.40;69.70;;;;;;5013539;28;20049;-73
2022/08/15 06:52:24;;;;;;;6.50;5.10;;;27.50;69.70;;;;;;5009537;28;20125;-73
2022/08/15 06:54:49;;;;;;;7.72;4.88;;;27.60;69.50;;;;;;5010650;28;20038;-73
2022/08/15 06:58:06;;;;;;;9.27;5.57;;;27.60;68.80;;;;;;4994390;28;20022;-73
2022/08/15 07:00:39;;;;;;;7.38;5.63;;;27.50;67.80;;;;;;4958589;28;20038;-73
2022/08/15 07:03:20;;;;;;;6.38;4.93;;;27.60;69.10;;;;;;5013013;28;20471;-72
2022/08/15 07:05:57;;;;;;;;;;;28.50;67.00;;;;;;5013851;28;20064;-72
2022/08/15 07:08:59;;;;;;;6.80;4.85;;;29.60;64.50;;;;;;5013637;28;20513;-73
2022/08/15 07:11:37;;;;;;;6.32;5.00;;;30.60;61.70;;;;;;4909597;28;20446;-72
2022/08/15 07:14:06;;;;;;;6.35;4.80;;;31.20;58.20;;;;;;4993420;28;20634;-72
2022/08/15 07:17:14;;;;;;;6.43;4.90;;;31.70;57.30;;;;;;4993971;28;20049;-73
2022/08/15 07:19:40;;;;;;;5.28;4.65;;;32.50;55.10;;;;;;4972662;28;20050;-72
2022/08/15 07:22:07;;;;;;;6.07;4.68;;;33.50;52.30;;;;;;4993323;28;20505;-73
2022/08/15 07:24:33;;;;;;;6.90;4.88;;;34.40;49.60;;;;;;4993648;28;20413;-73
2022/08/15 07:27:02;;;;;;;6.93;4.25;;;35.40;48.80;;;;;;4994828;28;20058;-72
2022/08/15 07:29:30;;;;;;;7.28;4.63;;;36.10;46.10;;;;;;5013187;28;20490;-72
2022/08/15 07:32:02;;;;;;;5.70;4.32;;;36.50;45.60;;;;;;5012885;28;20026;-72
2022/08/15 07:34:29;;;;;;;5.72;4.68;;;37.40;44.90;;;;;;5013241;28;20025;-73
2022/08/15 07:37:01;;;;;;;5.35;4.20;;;38.30;42.60;;;;;;5012708;28;20033;-73
2022/08/15 07:39:45;;;;;;;6.50;4.45;;;38.80;41.30;;;;;;5013230;28;20026;-72
2022/08/15 07:42:11;;;;;;;4.78;3.65;;;39.10;40.80;;;;;;5013323;28;20061;-73
2022/08/15 07:44:37;;;;;;;4.90;3.75;;;39.70;39.30;;;;;;5012915;28;20033;-73
2022/08/15 07:47:11;;;;;;;4.75;4.25;;;39.90;38.50;;;;;;5012468;28;20026;-74
2022/08/15 07:49:37;;;;;;;7.85;4.60;;;40.20;38.40;;;;;;4995346;28;20463;-73
2022/08/15 07:52:18;;;;;;;5.13;3.90;;;40.30;37.50;;;;;;5012289;28;20076;-73
2022/08/15 07:54:52;;;;;;;4.70;3.92;;;40.30;37.10;;;;;;5012922;28;20057;-73
2022/08/15 07:57:35;;;;;;;4.45;3.95;;;40.80;36.80;;;;;;5012939;28;20030;-73
2022/08/15 08:00:27;;;;;;;5.38;4.00;;;41.40;36.40;;;;;;5012290;28;20030;-73
2022/08/15 08:03:24;;;;;;;4.15;3.60;;;41.70;35.10;;;;;;5012516;28;20041;-73
2022/08/15 08:06:14;;;;;;;4.90;3.70;;;42.30;34.80;;;;;;5011554;28;20092;-73
2022/08/15 08:09:07;;;;;;;4.97;4.05;;;42.60;34.50;;;;;;5012861;28;20033;-73
2022/08/15 08:11:54;;;;;;;4.20;3.78;;;42.70;33.40;;;;;;5012954;28;20030;-72
2022/08/15 08:14:40;;;;;;;4.10;3.60;;;43.10;33.50;;;;;;5003044;28;20109;-73
2022/08/15 08:17:10;;;;;;;4.68;3.60;;;43.00;32.80;;;;;;5011071;28;20057;-69
2022/08/15 08:19:41;;;;;;;;;;;43.20;32.70;;;;;;5012859;28;20471;-72
2022/08/15 08:22:18;;;;;;;4.35;3.30;;;43.10;32.30;;;;;;5012061;28;19909;-72
2022/08/15 08:25:06;;;;;;;4.30;3.30;;;43.40;32.70;;;;;;5012656;28;20030;-72
2022/08/15 08:28:01;;;;;;;4.22;3.50;;;43.80;32.80;;;;;;5012992;28;20030;-67
2022/08/15 08:30:55;;;;;;;4.35;3.40;;;44.10;32.20;;;;;;5010588;28;20517;-67
2022/08/15 08:33:39;;;;;;;5.07;3.38;;;44.40;32.70;;;;;;5012282;28;20455;-67
2022/08/15 08:36:40;;;;;;;4.13;3.38;;;44.70;32.20;;;;;;5012286;28;20026;-68
2022/08/15 08:39:39;;;;;;;3.85;3.30;;;44.80;32.30;;;;;;4929878;29;20154;-70
2022/08/15 08:42:45;;;;;;;3.47;3.07;;;44.90;31.90;;;;;;4992836;28;20037;-73
2022/08/15 08:45:29;;;;;;;4.15;3.50;;;44.70;31.90;;;;;;4990672;28;20070;-72
2022/08/15 08:48:38;;;;;;;4.10;3.03;;;44.40;31.50;;;;;;4992583;28;20042;-72
2022/08/15 08:51:19;;;;;;;3.72;3.25;;;42.90;32.40;;;;;;4987198;28;20030;-73
2022/08/15 08:54:01;;;;;;;3.60;2.80;;;41.80;32.90;;;;;;5012579;28;20026;-75
2022/08/15 08:56:34;;;;;;;3.53;3.22;;;41.00;34.30;;;;;;5012342;28;20037;-75
2022/08/15 08:59:28;;;;;;;3.30;3.00;;;40.60;34.60;;;;;;5008123;28;20030;-74
2022/08/15 09:02:01;;;;;;;6.35;2.92;;;40.40;35.00;;;;;;4994529;28;20049;-72
2022/08/15 09:04:39;;;;;;;3.50;3.20;;;40.20;35.90;;;;;;4992717;28;20033;-73
2022/08/15 09:07:06;;;;;;;4.38;3.90;;;39.70;36.70;;;;;;4992350;28;20447;-72
2022/08/15 09:09:36;;;;;;;4.00;3.50;;;39.30;36.40;;;;;;4975303;28;20031;-71
2022/08/15 09:15:02;;;;;;;4.28;3.20;;;37.80;37.30;;;;;;4994726;28;20052;-71
2022/08/15 09:17:33;;;;;;;3.83;3.43;;;37.00;38.70;;;;;;5000424;28;20018;-71
2022/08/15 09:20:04;;;;;;;;;;;36.30;39.90;;;;;;4999825;28;20299;-71
2022/08/15 09:22:30;;;;;;;4.50;3.55;;;36.00;41.50;;;;;;4993424;28;19996;-71
2022/08/15 09:24:56;;;;;;;4.32;3.25;;;35.50;41.40;;;;;;5004071;28;20109;-72
2022/08/15 09:27:36;;;;;;;4.22;3.35;;;35.10;41.70;;;;;;5006857;28;20431;-72
2022/08/15 09:30:09;;;;;;;4.88;3.92;;;34.70;42.70;;;;;;5004794;28;20028;-72
2022/08/15 09:32:47;;;;;;;4.30;3.63;;;34.40;43.40;;;;;;5010279;28;20030;-72
2022/08/15 09:35:51;;;;;;;3.83;3.42;;;34.20;43.90;;;;;;5005458;28;20019;-72
2022/08/15 09:38:58;;;;;;;4.30;3.88;;;34.00;44.70;;;;;;5007638;28;20109;-71
2022/08/15 09:41:23;;;;;;;4.57;3.72;;;33.80;45.10;;;;;;4918227;29;20074;-71
2022/08/15 09:44:20;;;;;;;4.18;3.67;;;33.50;45.10;;;;;;4963818;28;20077;-71
2022/08/15 09:47:08;;;;;;;4.18;3.67;;;33.30;45.40;;;;;;4995322;28;20466;-70
2022/08/15 09:49:48;;;;;;;4.50;3.50;;;33.10;46.90;;;;;;4982640;28;20030;-70
2022/08/15 09:52:31;;;;;;;4.00;3.60;;;33.10;47.40;;;;;;5003354;28;20030;-69
2022/08/15 09:55:46;;;;;;;5.25;3.75;;;33.00;46.30;;;;;;4983653;28;20026;-70
2022/08/15 09:58:20;;;;;;;3.38;3.08;;;32.70;47.10;;;;;;4915667;29;20047;-70
2022/08/15 10:01:00;;;;;;;5.07;3.50;;;32.70;46.50;;;;;;4900307;29;20032;-70
2022/08/15 10:03:45;;;;;;;4.40;3.75;;;32.50;46.40;;;;;;4900322;29;20040;-70
2022/08/15 10:06:11;;;;;;;4.15;3.45;;;32.40;46.80;;;;;;4915537;29;20052;-70
2022/08/15 10:08:54;;;;;;;3.78;3.40;;;32.40;47.60;;;;;;4915989;29;20505;-71
2022/08/15 10:11:51;;;;;;;4.35;3.65;;;32.40;47.70;;;;;;4916233;29;20665;-69
2022/08/15 10:14:19;;;;;;;4.43;3.67;;;32.30;47.40;;;;;;4913429;29;20525;-69
2022/08/15 10:16:54;;;;;;;5.38;4.05;;;32.10;47.50;;;;;;4897174;29;20128;-69
2022/08/15 10:19:38;;;;;;;3.90;3.10;;;32.00;48.30;;;;;;4900575;29;20060;-70
2022/08/15 10:22:22;;;;;;;4.35;3.47;;;32.00;47.20;;;;;;4915667;29;20047;-70
2022/08/15 10:25:12;;;;;;;3.67;3.38;;;31.80;47.20;;;;;;4916165;29;20028;-70
2022/08/15 10:28:05;;;;;;;4.00;3.30;;;31.80;47.80;;;;;;4916451;29;20032;-71
2022/08/15 10:30:34;;;;;;;3.90;3.35;;;31.80;48.20;;;;;;4993965;28;20419;-72
2022/08/15 10:33:20;;;;;;;4.45;3.40;;;31.80;46.50;;;;;;4994990;28;20040;-72
2022/08/15 10:35:47;;;;;;;3.65;3.35;;;31.80;47.10;;;;;;4994243;28;20034;-71
2022/08/15 10:38:23;;;;;;;3.78;3.30;;;31.80;47.50;;;;;;4994493;28;20033;-73
2022/08/15 10:41:31;;;;;;;5.53;4.07;;;31.80;47.70;;;;;;4995005;28;20038;-72
2022/08/15 10:44:29;;;;;;;4.00;3.35;;;31.70;47.50;;;;;;4916421;28;20030;-71
2022/08/15 10:47:27;;;;;;;3.97;3.53;;;31.70;48.40;;;;;;4959685;28;20494;-70
2022/08/15 10:50:08;;;;;;;5.25;3.65;;;31.70;48.10;;;;;;5013838;28;20034;-70
2022/08/15 10:53:00;;;;;;;4.70;2.90;;;31.60;48.10;;;;;;5013667;28;20022;-71
2022/08/15 10:55:32;;;;;;;4.45;3.42;;;31.60;48.10;;;;;;5014139;28;20064;-71
2022/08/15 10:58:16;;;;;;;6.53;3.60;;;31.70;49.00;;;;;;5014011;28;20036;-75
2022/08/15 11:00:51;;;;;;;3.67;3.20;;;31.80;49.20;;;;;;5014267;28;20029;-71
2022/08/15 11:03:27;;;;;;;5.43;3.72;;;31.80;48.10;;;;;;4995735;28;20037;-72
2022/08/15 11:06:00;;;;;;;3.38;3.08;;;31.80;47.80;;;;;;5014095;28;20026;-73
2022/08/15 11:08:26;;;;;;;3.90;3.20;;;31.90;48.50;;;;;;5013884;28;20022;-73
2022/08/15 11:10:59;;;;;;;4.55;3.55;;;31.90;47.70;;;;;;4996463;28;20391;-75
2022/08/15 11:13:28;;;;;;;3.58;3.28;;;32.00;46.80;;;;;;4996370;28;20036;-75
2022/08/15 11:15:58;;;;;;;4.03;2.95;;;32.00;46.30;;;;;;5010467;28;20467;-74
2022/08/15 11:18:34;;;;;;;6.30;3.33;;;32.10;46.90;;;;;;4995791;28;20034;-73
2022/08/15 11:21:34;;;;;;;4.45;3.17;;;32.10;46.10;;;;;;4993969;28;20030;-74
2022/08/15 11:24:06;;;;;;;3.72;3.28;;;32.20;46.30;;;;;;5001266;28;20045;-75
2022/08/15 11:26:38;;;;;;;3.80;3.05;;;32.20;45.50;;;;;;5010366;28;20030;-75
2022/08/15 11:29:18;;;;;;;4.32;3.13;;;32.30;45.90;;;;;;5013278;28;20359;-75
2022/08/15 11:31:56;;;;;;;3.50;2.50;;;32.20;44.90;;;;;;5013772;28;20427;-75
2022/08/15 11:34:31;;;;;;;3.30;2.85;;;32.30;45.30;;;;;;5013098;28;20061;-75
2022/08/15 11:37:17;;;;;;;4.65;3.05;;;32.30;44.80;;;;;;5013450;28;20022;-75
2022/08/15 11:39:47;;;;;;;4.90;3.08;;;32.30;45.40;;;;;;5013159;28;20100;-75
2022/08/15 11:42:20;;;;;;;3.10;2.80;;;32.20;44.60;;;;;;5012852;28;20566;-75
2022/08/15 11:45:07;;;;;;;3.75;3.42;;;32.20;44.70;;;;;;5013116;28;20084;-73
2022/08/15 11:47:36;;;;;;;4.82;3.00;;;32.20;45.20;;;;;;5013280;28;20542;-74
2022/08/15 11:50:19;;;;;;;3.67;2.88;;;32.20;45.60;;;;;;5013293;28;20030;-74
2022/08/15 11:52:54;;;;;;;3.35;3.05;;;32.30;44.60;;;;;;5013426;28;20396;-74
2022/08/15 11:55:27;;;;;;;5.60;3.00;;;32.30;44.60;;;;;;5012859;28;20109;-74
2022/08/15 11:58:00;;;;;;;4.32;3.13;;;32.30;44.50;;;;;;5013251;28;20118;-74
2022/08/15 12:00:43;;;;;;;3.42;3.08;;;32.20;44.30;;;;;;5012645;28;20430;-75
2022/08/15 12:03:31;;;;;;;4.38;3.25;;;32.30;44.10;;;;;;5012847;28;20038;-75
2022/08/15 12:06:19;;;;;;;2.97;2.65;;;32.30;44.50;;;;;;4995566;28;20026;-74
2022/08/15 12:08:47;;;;;;;4.03;3.10;;;32.30;44.30;;;;;;5013414;28;20104;-74
2022/08/15 12:11:12;;;;;;;5.00;3.28;;;32.40;44.50;;;;;;4994590;28;20037;-75
2022/08/15 12:13:40;;;;;;;7.70;3.05;;;32.40;44.70;;;;;;5012721;28;20026;-75
2022/08/15 12:16:23;;;;;;;3.35;2.80;;;32.40;45.00;;;;;;5012580;28;20458;-78
2022/08/15 12:18:49;;;;;;;4.20;3.17;;;32.30;45.00;;;;;;5012555;28;20502;-73
2022/08/15 12:21:16;;;;;;;2.78;2.50;;;32.20;45.10;;;;;;5012591;28;20118;-76
2022/08/15 12:23:54;;;;;;;3.10;2.70;;;32.20;45.10;;;;;;5013072;28;20351;-74
2022/08/15 12:26:22;;;;;;;2.85;2.58;;;32.10;44.90;;;;;;5009383;28;20032;-75
2022/08/15 12:28:48;;;;;;;3.40;2.80;;;32.00;44.90;;;;;;5012776;28;20040;-75
2022/08/15 12:31:25;;;;;;;4.68;2.60;;;32.00;44.90;;;;;;5012364;28;20441;-75
2022/08/15 12:34:18;;;;;;;2.70;2.30;;;31.90;45.20;;;;;;5012577;28;20549;-74
2022/08/15 12:36:44;;;;;;;3.20;2.90;;;31.80;45.20;;;;;;5003498;28;20038;-74
2022/08/15 12:39:13;;;;;;;3.22;2.70;;;31.70;45.80;;;;;;5012016;28;20034;-74
2022/08/15 12:41:42;;;;;;;2.97;2.65;;;31.70;45.90;;;;;;5012549;28;20038;-75
2022/08/15 12:44:20;;;;;;;2.92;2.60;;;31.70;45.30;;;;;;5012082;28;20030;-75
2022/08/15 12:46:46;;;;;;;5.00;2.17;;;31.60;45.60;;;;;;5012855;28;20030;-74
2022/08/15 12:49:11;;;;;;;2.10;1.88;;;31.60;43.10;;;;;;5012041;28;20427;-75
2022/08/15 12:51:37;;;;;;;2.50;2.30;;;31.50;43.40;;;;;;5012409;28;20029;-75
2022/08/15 12:54:03;;;;;;;2.88;2.50;;;31.50;43.20;;;;;;5012242;28;20041;-75
2022/08/15 12:56:29;;;;;;;2.13;1.83;;;31.40;42.80;;;;;;5012211;28;20096;-76
2022/08/15 12:58:54;;;;;;;2.20;2.00;;;31.30;42.30;;;;;;5015608;28;20450;-74
2022/08/15 13:01:20;;;;;;;2.47;2.10;;;31.30;43.50;;;;;;5016072;28;20382;-74
2022/08/15 13:03:46;;;;;;;2.42;2.22;;;31.30;43.60;;;;;;5016647;28;20026;-74
2022/08/15 13:06:26;;;;;;;2.10;1.90;;;31.40;43.90;;;;;;5015863;28;20022;-74
2022/08/15 13:08:52;;;;;;;2.50;1.92;;;31.30;43.40;;;;;;5015948;28;20316;-75
2022/08/15 13:11:18;;;;;;;2.30;2.10;;;31.30;43.60;;;;;;5015763;28;20026;-75
2022/08/15 13:13:44;;;;;;;3.50;2.70;;;31.30;43.90;;;;;;5016149;28;20490;-75
2022/08/15 13:16:10;;;;;;;2.53;2.33;;;31.30;44.20;;;;;;5014982;28;20058;-76
2022/08/15 13:18:37;;;;;;;2.97;2.50;;;31.30;44.80;;;;;;5015797;28;20143;-74
2022/08/15 13:23:53;;;;;;;2.05;1.67;;;31.30;42.40;;;;;;5015913;28;20394;-73
2022/08/15 13:26:22;;;;;;;1.92;1.40;;;31.20;42.10;;;;;;5015265;28;20033;-74
2022/08/15 13:28:50;;;;;;;2.15;1.80;;;31.20;41.50;;;;;;5015653;28;20065;-73
2022/08/15 13:31:18;;;;;;;2.53;1.75;;;31.10;41.90;;;;;;5014978;28;20485;-73